Rosehill, Kansas
Current Conditions -  °F | °C
As of 11:58 PM on Thursday 30 Oct 2014 (Local Time) from KIAB Reporting Station
Clear Clear  
Wind Chill: 54°   Ceiling: Unl
Heat Index: 54°   Visibility: 10mi
Dew Point: 35°   Wind: 18mph
Humidity: 50%   Direction: 10°N
Pressure: 30.28"   Gusts: 23mph
Location:  37.5599°N, 97.0971°W
Report Text: KIAB 310458Z AUTO 01016G20KT 10SM CLR 12/02 A3028 RMK AO2 SLP253 T01200019
Loading
Personal Weather Stations






























Interactive Weather Map
Tropical Storm Tracking
New forecast layout! Learn more

10-Day Weather Forecast

Advertisements
Track Severe Weather on mobile